Time;durP1;ratioP1;P1;durP2;ratioP2;P2;SDS_P1;SDS_P2;PMS_P1;PMS_P2;Temp;Humidity;BMP_temperature;BMP_pressure;BME280_temperature;BME280_humidity;BME280_pressure;Samples;Min_cycle;Max_cycle;Signal;HPM_P1;HPM_P2
2021/04/18 00:02:05;;;;;;;12.52;7.13;;;3.10;95.90;;;;;;5055467;28;20115;-79
2021/04/18 00:04:31;;;;;;;13.23;7.45;;;3.10;95.80;;;;;;5048536;28;20052;-79
2021/04/18 00:06:56;;;;;;;15.80;7.20;;;3.10;95.80;;;;;;5041968;28;20053;-79
2021/04/18 00:09:28;;;;;;;9.60;6.13;;;3.10;95.80;;;;;;5065677;28;20338;-79
2021/04/18 00:12:36;;;;;;;10.88;5.97;;;3.00;95.80;;;;;;5058977;28;20105;-80
2021/04/18 00:15:13;;;;;;;11.63;6.30;;;3.00;95.80;;;;;;5071056;28;20033;-80
2021/04/18 00:17:40;;;;;;;9.18;5.97;;;2.90;95.90;;;;;;5051159;28;20044;-78
2021/04/18 00:20:11;;;;;;;11.80;6.50;;;2.90;96.10;;;;;;5057832;28;20052;-78
2021/04/18 00:22:39;;;;;;;10.20;5.97;;;2.90;96.30;;;;;;5047994;28;20124;-78
2021/04/18 00:25:06;;;;;;;9.32;6.50;;;2.90;96.20;;;;;;5060698;28;20064;-78
2021/04/18 00:27:32;;;;;;;10.00;6.03;;;2.90;96.00;;;;;;5059336;28;20123;-78
2021/04/18 00:29:57;;;;;;;10.25;6.90;;;2.90;96.00;;;;;;5056073;28;20512;-79
2021/04/18 00:32:24;;;;;;;13.27;7.90;;;2.80;96.00;;;;;;5066082;28;20677;-79
2021/04/18 00:34:49;;;;;;;14.27;6.90;;;2.80;95.90;;;;;;5054182;28;20439;-79
2021/04/18 00:37:15;;;;;;;15.88;9.13;;;2.80;95.90;;;;;;5062342;28;20093;-79
2021/04/18 00:39:41;;;;;;;8.68;6.63;;;2.80;96.20;;;;;;5058588;28;20053;-79
2021/04/18 00:42:07;;;;;;;8.65;6.72;;;2.80;96.20;;;;;;5064367;28;20143;-79
2021/04/18 00:44:32;;;;;;;7.75;5.72;;;2.80;96.30;;;;;;5060770;28;20590;-79
2021/04/18 00:47:01;;;;;;;15.00;7.63;;;2.70;96.20;;;;;;5056373;28;20037;-79
2021/04/18 00:49:27;;;;;;;11.98;7.47;;;2.70;96.30;;;;;;5055141;28;20541;-79
2021/04/18 00:51:53;;;;;;;9.10;7.07;;;2.70;96.40;;;;;;5060117;28;20069;-80
2021/04/18 00:54:19;;;;;;;10.30;7.00;;;2.70;96.30;;;;;;5055172;28;20043;-80
2021/04/18 00:56:45;;;;;;;12.00;7.28;;;2.70;96.50;;;;;;5064089;28;20123;-80
2021/04/18 00:59:11;;;;;;;10.55;6.97;;;2.70;96.50;;;;;;5058722;28;20071;-78
2021/04/18 01:01:37;;;;;;;10.82;6.82;;;2.70;96.70;;;;;;5064111;28;20049;-80
2021/04/18 01:04:03;;;;;;;9.50;5.63;;;2.70;96.40;;;;;;5072488;28;20113;-80
2021/04/18 01:06:29;;;;;;;9.50;6.45;;;2.70;96.20;;;;;;5056722;28;20053;-80
2021/04/18 01:08:55;;;;;;;17.38;11.27;;;2.60;96.10;;;;;;5056773;28;20400;-80
2021/04/18 01:11:21;;;;;;;12.60;9.98;;;2.60;96.40;;;;;;5055451;28;20045;-80
2021/04/18 01:13:46;;;;;;;13.30;8.63;;;2.60;96.40;;;;;;5056172;28;20477;-79
2021/04/18 01:16:14;;;;;;;17.67;10.05;;;2.70;96.70;;;;;;5052955;28;20141;-79
2021/04/18 01:18:39;;;;;;;16.30;9.00;;;2.70;96.60;;;;;;5059525;28;20506;-79
2021/04/18 01:21:09;;;;;;;11.60;7.57;;;2.70;96.60;;;;;;5051762;28;20029;-79
2021/04/18 01:23:35;;;;;;;16.80;11.25;;;2.70;96.40;;;;;;5061550;28;20033;-79
2021/04/18 01:26:01;;;;;;;11.90;8.40;;;2.70;96.80;;;;;;5050951;28;20055;-79
2021/04/18 01:28:27;;;;;;;17.02;10.27;;;2.70;96.80;;;;;;5070937;28;20160;-79
2021/04/18 01:30:53;;;;;;;18.35;11.65;;;2.70;96.70;;;;;;5053222;28;20037;-79
2021/04/18 01:33:20;;;;;;;18.08;10.80;;;2.70;96.90;;;;;;5059838;28;20087;-79
2021/04/18 01:35:47;;;;;;;24.40;11.55;;;2.70;97.20;;;;;;5056313;28;20041;-79
2021/04/18 01:38:14;;;;;;;14.30;9.35;;;2.70;97.10;;;;;;5062004;28;20053;-79
2021/04/18 01:40:42;;;;;;;18.67;10.70;;;2.70;96.90;;;;;;5055974;28;20477;-79
2021/04/18 01:43:11;;;;;;;18.42;11.25;;;2.70;96.80;;;;;;5057929;28;20055;-79
2021/04/18 01:45:37;;;;;;;15.43;10.52;;;2.70;96.80;;;;;;5065683;28;20044;-79
2021/04/18 01:48:03;;;;;;;20.10;10.15;;;2.60;96.80;;;;;;5056691;28;20048;-79
2021/04/18 01:50:31;;;;;;;21.70;11.20;;;2.60;96.90;;;;;;5059568;28;20059;-79
2021/04/18 01:52:57;;;;;;;22.55;12.55;;;2.60;97.00;;;;;;5061657;28;20037;-79
2021/04/18 01:55:24;;;;;;;20.25;10.68;;;2.60;97.30;;;;;;5057610;28;20045;-79
2021/04/18 01:57:50;;;;;;;21.77;10.57;;;2.60;97.30;;;;;;5062487;28;20063;-79
2021/04/18 02:00:16;;;;;;;33.28;16.40;;;2.60;97.40;;;;;;5065625;28;20644;-79
2021/04/18 02:02:42;;;;;;;57.13;17.65;;;2.60;97.30;;;;;;5061625;28;20053;-79
2021/04/18 02:05:09;;;;;;;32.75;11.77;;;2.70;97.40;;;;;;5063506;28;20080;-79
2021/04/18 02:07:35;;;;;;;24.42;11.02;;;2.70;97.50;;;;;;5054601;28;20040;-79
2021/04/18 02:10:01;;;;;;;38.13;11.38;;;2.60;97.30;;;;;;5062129;28;20147;-79
2021/04/18 02:12:27;;;;;;;37.92;12.23;;;2.60;97.40;;;;;;5055168;28;20575;-79
2021/04/18 02:14:52;;;;;;;44.10;10.73;;;2.60;97.40;;;;;;5056678;28;20124;-79
2021/04/18 02:17:18;;;;;;;74.50;15.57;;;2.60;97.40;;;;;;5062909;28;20048;-80
2021/04/18 02:19:44;;;;;;;58.20;13.80;;;2.60;97.50;;;;;;5061288;28;20446;-80
2021/04/18 02:22:10;;;;;;;52.92;15.55;;;2.60;97.70;;;;;;5055465;28;20029;-80
2021/04/18 02:24:35;;;;;;;22.08;11.20;;;2.60;97.70;;;;;;5055064;28;20041;-80
2021/04/18 02:27:01;;;;;;;18.42;10.85;;;2.60;97.60;;;;;;5055029;28;20134;-78
2021/04/18 02:29:27;;;;;;;38.13;14.10;;;2.50;97.80;;;;;;5060296;28;20128;-79
2021/04/18 02:31:54;;;;;;;40.85;15.35;;;2.60;97.70;;;;;;5061474;28;20051;-79
2021/04/18 02:34:21;;;;;;;51.70;16.85;;;2.50;97.80;;;;;;5049232;28;20039;-79
2021/04/18 02:36:48;;;;;;;21.17;11.48;;;2.60;97.90;;;;;;5047566;28;20044;-79
2021/04/18 02:39:14;;;;;;;27.38;12.30;;;2.60;97.90;;;;;;5060930;28;20439;-78
2021/04/18 02:41:39;;;;;;;38.20;16.90;;;2.50;97.70;;;;;;5053213;28;20136;-78
2021/04/18 02:44:05;;;;;;;39.30;17.90;;;2.50;97.60;;;;;;5055843;28;20461;-79
2021/04/18 02:46:31;;;;;;;38.70;17.52;;;2.50;97.70;;;;;;5055157;28;20424;-79
2021/04/18 02:48:57;;;;;;;43.28;19.55;;;2.60;97.90;;;;;;5056811;28;20044;-79
2021/04/18 02:51:23;;;;;;;40.63;19.20;;;2.60;98.10;;;;;;5057897;28;20108;-79
2021/04/18 02:53:48;;;;;;;36.20;16.10;;;2.60;98.20;;;;;;5048625;28;20048;-79
2021/04/18 02:56:15;;;;;;;43.63;14.75;;;2.60;98.20;;;;;;5055555;28;20041;-78
2021/04/18 02:58:41;;;;;;;41.78;16.67;;;2.70;98.20;;;;;;5058494;28;20041;-78
2021/04/18 03:01:06;;;;;;;27.85;11.85;;;2.60;98.10;;;;;;5054822;28;20087;-78
2021/04/18 03:03:32;;;;;;;25.30;14.35;;;2.70;98.00;;;;;;5053040;28;20041;-78
2021/04/18 03:05:58;;;;;;;28.05;12.60;;;2.70;97.90;;;;;;5054939;28;20041;-78
2021/04/18 03:08:24;;;;;;;45.95;13.40;;;2.60;98.10;;;;;;5045910;28;20052;-78
2021/04/18 03:10:50;;;;;;;24.08;11.00;;;2.60;98.00;;;;;;5055300;28;20118;-80
2021/04/18 03:13:15;;;;;;;55.42;13.50;;;2.60;97.90;;;;;;5055310;28;20111;-79
2021/04/18 03:15:42;;;;;;;44.13;17.98;;;2.60;97.80;;;;;;5060990;28;20122;-79
2021/04/18 03:18:08;;;;;;;42.72;16.00;;;2.60;97.80;;;;;;5056095;28;20069;-79
2021/04/18 03:20:34;;;;;;;40.28;14.32;;;2.60;98.00;;;;;;5055872;28;20450;-79
2021/04/18 03:23:00;;;;;;;47.20;16.20;;;2.60;98.10;;;;;;5061059;28;20061;-79
2021/04/18 03:25:26;;;;;;;38.60;15.02;;;2.60;98.10;;;;;;5044310;28;20498;-79
2021/04/18 03:27:52;;;;;;;42.40;13.15;;;2.60;98.10;;;;;;5055756;28;20520;-79
2021/04/18 03:30:18;;;;;;;35.85;12.75;;;2.60;98.10;;;;;;5056701;28;20029;-79
2021/04/18 03:32:44;;;;;;;23.95;12.88;;;2.60;98.00;;;;;;5059851;28;20043;-79
2021/04/18 03:35:11;;;;;;;37.15;13.95;;;2.50;97.90;;;;;;5068697;28;20053;-79
2021/04/18 03:37:36;;;;;;;22.75;11.45;;;2.50;98.10;;;;;;5056162;28;20032;-79
2021/04/18 03:40:03;;;;;;;46.35;15.85;;;2.50;98.10;;;;;;5057918;28;20044;-79
2021/04/18 03:42:29;;;;;;;28.73;11.98;;;2.50;98.00;;;;;;5049796;28;20049;-79
2021/04/18 03:44:55;;;;;;;35.75;11.57;;;2.40;98.00;;;;;;5057037;28;20103;-79
2021/04/18 03:47:21;;;;;;;43.58;11.73;;;2.40;97.90;;;;;;5053538;28;20059;-79
2021/04/18 03:49:46;;;;;;;47.60;12.00;;;2.30;97.90;;;;;;5055451;28;20040;-79
2021/04/18 03:52:12;;;;;;;28.05;10.57;;;2.30;98.00;;;;;;5051525;28;20032;-78
2021/04/18 03:54:38;;;;;;;41.47;12.25;;;2.30;98.10;;;;;;5053768;28;20043;-78
2021/04/18 03:57:05;;;;;;;24.90;9.43;;;2.20;98.10;;;;;;5051455;28;20079;-78
2021/04/18 03:59:31;;;;;;;44.03;14.07;;;2.20;98.10;;;;;;5060362;28;20041;-78
2021/04/18 04:01:57;;;;;;;33.70;14.55;;;2.20;98.10;;;;;;5057861;28;20032;-78
2021/04/18 04:04:22;;;;;;;28.20;11.57;;;2.20;98.20;;;;;;5059087;28;20033;-78
2021/04/18 04:06:49;;;;;;;24.67;10.05;;;2.10;98.30;;;;;;5062038;28;20043;-78
2021/04/18 04:09:14;;;;;;;23.08;9.77;;;2.10;98.20;;;;;;5054065;28;20043;-78
2021/04/18 04:11:41;;;;;;;39.75;12.82;;;2.10;98.10;;;;;;5053687;28;20037;-78
2021/04/18 04:14:07;;;;;;;57.45;12.57;;;2.10;98.40;;;;;;5064507;28;20032;-79
2021/04/18 04:16:32;;;;;;;41.55;11.35;;;2.10;98.40;;;;;;5067565;28;20040;-79
2021/04/18 04:18:58;;;;;;;26.92;9.23;;;2.00;98.30;;;;;;5057927;28;20044;-78
2021/04/18 04:21:24;;;;;;;77.20;13.30;;;2.00;98.20;;;;;;5056539;28;20404;-78
2021/04/18 04:23:50;;;;;;;49.38;11.77;;;2.00;98.20;;;;;;5060578;28;20114;-78
2021/04/18 04:26:15;;;;;;;56.97;13.07;;;2.00;98.30;;;;;;5062182;28;20037;-79
2021/04/18 04:28:41;;;;;;;50.65;11.23;;;2.00;98.30;;;;;;5058009;28;20033;-79
2021/04/18 04:31:07;;;;;;;41.15;11.38;;;1.90;98.30;;;;;;5057568;28;20037;-79
2021/04/18 04:33:34;;;;;;;67.35;14.40;;;2.00;98.20;;;;;;5057343;28;20435;-78
2021/04/18 04:36:00;;;;;;;58.92;13.48;;;1.90;98.30;;;;;;5062911;28;20063;-78
2021/04/18 04:38:26;;;;;;;46.15;11.32;;;1.90;98.30;;;;;;5056287;28;20037;-78
2021/04/18 04:40:52;;;;;;;45.63;10.95;;;1.90;98.20;;;;;;5054688;28;20465;-78
2021/04/18 04:43:18;;;;;;;48.67;11.23;;;1.90;98.20;;;;;;5056033;28;20134;-78
2021/04/18 04:45:44;;;;;;;65.03;17.13;;;1.90;98.20;;;;;;5056559;28;20045;-78
2021/04/18 04:48:11;;;;;;;40.22;11.65;;;1.90;98.20;;;;;;5051406;28;20056;-78
2021/04/18 04:50:37;;;;;;;45.42;11.50;;;2.00;98.50;;;;;;5066042;28;20444;-78
2021/04/18 04:53:02;;;;;;;35.22;12.27;;;2.00;98.40;;;;;;5052386;28;20099;-78
2021/04/18 04:55:28;;;;;;;48.38;11.40;;;2.00;98.40;;;;;;5061216;28;20032;-78
2021/04/18 04:57:56;;;;;;;40.13;10.75;;;2.00;98.50;;;;;;5059147;28;20536;-78
2021/04/18 05:00:22;;;;;;;35.53;10.38;;;2.00;98.80;;;;;;5056186;28;20036;-78
2021/04/18 05:02:48;;;;;;;61.22;12.18;;;2.00;98.80;;;;;;5054895;28;21727;-78
2021/04/18 05:05:14;;;;;;;58.53;13.40;;;2.00;98.70;;;;;;5052325;28;20087;-77
2021/04/18 05:07:40;;;;;;;68.57;17.00;;;2.00;98.70;;;;;;5057273;28;20048;-78
2021/04/18 05:10:07;;;;;;;102.22;17.88;;;2.00;98.80;;;;;;5057270;28;20061;-78
2021/04/18 05:12:32;;;;;;;85.43;15.05;;;2.10;98.70;;;;;;5058329;28;20127;-77
2021/04/18 05:14:58;;;;;;;92.45;18.05;;;2.10;98.60;;;;;;5051690;28;20123;-77
2021/04/18 05:17:25;;;;;;;101.78;17.27;;;2.10;98.80;;;;;;5054684;28;20037;-77
2021/04/18 05:19:51;;;;;;;102.55;19.85;;;2.10;98.70;;;;;;5055881;28;20032;-76
2021/04/18 05:22:16;;;;;;;63.65;21.27;;;2.20;98.80;;;;;;5057500;28;20048;-76
2021/04/18 05:24:42;;;;;;;91.15;17.45;;;2.30;98.90;;;;;;5052222;28;20522;-76
2021/04/18 05:27:08;;;;;;;99.20;22.73;;;2.30;99.10;;;;;;5062448;28;20110;-76
2021/04/18 05:29:34;;;;;;;78.50;21.20;;;2.30;99.20;;;;;;5052415;28;20049;-76
2021/04/18 05:32:00;;;;;;;127.28;22.40;;;2.40;99.30;;;;;;5056719;28;20093;-76
2021/04/18 05:34:26;;;;;;;82.55;13.90;;;2.40;99.10;;;;;;5060008;28;20064;-76
2021/04/18 05:36:51;;;;;;;41.63;13.93;;;2.40;99.00;;;;;;5048289;28;20041;-76
2021/04/18 05:39:17;;;;;;;73.55;13.27;;;2.50;99.00;;;;;;5054481;28;20083;-76
2021/04/18 05:41:43;;;;;;;76.72;20.98;;;2.50;99.10;;;;;;5050672;28;20064;-76
2021/04/18 05:44:14;;;;;;;52.97;13.02;;;2.60;99.10;;;;;;5061554;28;20433;-76
2021/04/18 05:46:41;;;;;;;42.42;13.65;;;2.70;99.10;;;;;;5051285;28;20050;-76
2021/04/18 05:49:07;;;;;;;28.48;14.07;;;2.70;99.10;;;;;;5054614;28;20099;-76
2021/04/18 05:51:33;;;;;;;39.65;15.23;;;2.80;99.00;;;;;;5048984;28;20032;-76
2021/04/18 05:53:59;;;;;;;27.73;14.55;;;2.90;99.00;;;;;;5055581;28;20487;-76
2021/04/18 05:56:25;;;;;;;16.27;13.85;;;2.90;99.00;;;;;;5051257;28;20037;-76
2021/04/18 05:58:51;;;;;;;11.40;9.98;;;3.00;99.00;;;;;;5054381;28;20055;-76
2021/04/18 06:01:22;;;;;;;17.55;11.00;;;3.10;99.10;;;;;;5049090;28;20120;-76
2021/04/18 06:03:48;;;;;;;17.10;12.70;;;3.20;99.10;;;;;;5059605;28;20047;-76
2021/04/18 06:06:14;;;;;;;18.92;13.52;;;3.20;99.00;;;;;;5047391;28;20520;-76
2021/04/18 06:08:40;;;;;;;20.67;12.77;;;3.30;99.00;;;;;;5052698;28;20053;-76
2021/04/18 06:11:07;;;;;;;17.92;12.50;;;3.40;99.10;;;;;;5054121;28;20033;-76
2021/04/18 06:13:33;;;;;;;11.48;9.85;;;3.50;99.10;;;;;;5056802;28;20122;-76
2021/04/18 06:15:59;;;;;;;11.38;9.77;;;3.50;99.10;;;;;;5055912;28;20397;-76
2021/04/18 06:18:25;;;;;;;12.88;11.20;;;3.60;99.00;;;;;;5049242;28;20037;-76
2021/04/18 06:20:51;;;;;;;11.55;10.45;;;3.80;99.00;;;;;;5059608;28;20462;-76
2021/04/18 06:23:17;;;;;;;10.55;9.45;;;3.90;98.90;;;;;;5047767;28;20040;-77
2021/04/18 06:25:43;;;;;;;15.40;12.13;;;4.00;98.80;;;;;;5053354;28;20412;-77
2021/04/18 06:28:09;;;;;;;10.60;9.60;;;4.10;98.80;;;;;;5047706;28;20045;-77
2021/04/18 06:30:34;;;;;;;13.30;12.00;;;4.30;98.80;;;;;;5056410;28;20040;-77
2021/04/18 06:33:00;;;;;;;14.05;11.30;;;4.40;98.80;;;;;;5052227;28;20036;-77
2021/04/18 06:35:26;;;;;;;11.88;10.65;;;4.60;98.70;;;;;;5058718;28;20436;-77
2021/04/18 06:37:52;;;;;;;16.13;12.40;;;4.80;98.60;;;;;;5051558;28;20473;-77
2021/04/18 06:40:18;;;;;;;14.05;12.23;;;4.90;98.70;;;;;;5050561;28;20194;-77
2021/04/18 06:42:45;;;;;;;13.95;11.73;;;5.10;98.50;;;;;;5055426;28;20056;-77
2021/04/18 06:45:11;;;;;;;13.27;11.77;;;5.30;98.50;;;;;;5053287;28;20135;-76
2021/04/18 06:47:40;;;;;;;13.80;11.00;;;5.30;98.20;;;;;;5052864;28;20610;-77
2021/04/18 06:50:07;;;;;;;15.32;11.40;;;5.50;98.20;;;;;;5055178;28;20108;-76
2021/04/18 06:52:34;;;;;;;13.60;10.68;;;5.60;98.10;;;;;;5051087;28;20136;-77
2021/04/18 06:55:01;;;;;;;14.02;10.50;;;5.80;98.00;;;;;;5049781;28;20033;-77
2021/04/18 06:57:27;;;;;;;12.57;10.55;;;5.90;97.80;;;;;;5058095;28;20040;-77
2021/04/18 06:59:53;;;;;;;13.00;10.48;;;6.10;97.80;;;;;;5055640;28;20040;-77
2021/04/18 07:02:28;;;;;;;12.90;10.57;;;6.10;97.80;;;;;;5053139;28;20470;-77
2021/04/18 07:05:06;;;;;;;10.77;9.52;;;6.20;97.50;;;;;;5045887;28;20044;-77
2021/04/18 07:07:35;;;;;;;11.38;10.10;;;6.30;97.30;;;;;;5052412;28;20454;-77
2021/04/18 07:10:02;;;;;;;11.90;10.45;;;6.30;97.20;;;;;;5049577;28;20414;-77
2021/04/18 07:12:29;;;;;;;12.63;11.27;;;6.40;97.20;;;;;;5058538;28;20118;-77
2021/04/18 07:14:56;;;;;;;11.57;10.38;;;6.40;97.30;;;;;;5048022;28;20039;-77
2021/04/18 07:17:22;;;;;;;12.05;10.48;;;6.60;97.50;;;;;;5055727;28;20079;-77
2021/04/18 07:19:50;;;;;;;16.42;12.63;;;6.80;97.40;;;;;;5048992;28;20052;-78
2021/04/18 07:22:29;;;;;;;11.80;8.68;;;7.00;97.40;;;;;;5056621;28;20040;-77
2021/04/18 07:24:57;;;;;;;13.82;10.95;;;7.60;97.10;;;;;;5050157;28;20472;-77
2021/04/18 07:27:23;;;;;;;11.35;10.15;;;8.30;96.20;;;;;;5050772;28;20087;-77
2021/04/18 07:29:55;;;;;;;11.82;10.50;;;8.90;95.20;;;;;;5055401;28;20049;-76
2021/04/18 07:32:23;;;;;;;10.85;8.35;;;9.60;94.30;;;;;;5058415;28;20064;-77
2021/04/18 07:34:50;;;;;;;9.52;8.55;;;10.10;93.30;;;;;;5057881;28;20072;-76
2021/04/18 07:37:19;;;;;;;8.48;7.60;;;10.50;91.80;;;;;;5061398;28;20433;-77
2021/04/18 07:39:53;;;;;;;10.40;7.68;;;10.80;91.00;;;;;;5049216;28;20059;-77
2021/04/18 07:42:42;;;;;;;14.20;8.03;;;11.00;90.40;;;;;;5057669;28;20051;-76
2021/04/18 07:45:09;;;;;;;11.30;7.75;;;11.20;89.30;;;;;;5057188;28;20037;-76
2021/04/18 07:47:42;;;;;;;10.07;7.53;;;11.20;88.70;;;;;;5062180;28;20057;-77
2021/04/18 07:50:11;;;;;;;9.77;7.55;;;11.30;88.30;;;;;;5045319;28;20052;-76
2021/04/18 07:52:41;;;;;;;9.98;7.10;;;11.40;87.90;;;;;;5062968;28;20518;-77
2021/04/18 07:55:08;;;;;;;10.43;7.43;;;11.20;87.10;;;;;;5046925;28;20059;-78
2021/04/18 07:57:34;;;;;;;9.32;7.38;;;11.00;86.90;;;;;;5057788;28;20036;-78
2021/04/18 08:00:00;;;;;;;11.00;8.13;;;11.00;86.60;;;;;;5059754;28;20067;-77
2021/04/18 08:02:27;;;;;;;13.38;8.40;;;11.30;87.10;;;;;;5056750;28;20049;-78
2021/04/18 08:04:56;;;;;;;11.55;7.95;;;11.60;83.70;;;;;;5058066;28;20120;-78
2021/04/18 08:07:24;;;;;;;11.10;7.05;;;11.70;82.90;;;;;;5051612;28;20033;-78
2021/04/18 08:10:21;;;;;;;9.13;7.30;;;12.00;80.20;;;;;;5057023;28;20053;-78
2021/04/18 08:13:01;;;;;;;9.52;6.82;;;12.20;77.00;;;;;;5052521;28;20033;-79
2021/04/18 08:15:27;;;;;;;10.95;7.50;;;12.30;76.90;;;;;;5063162;28;20047;-79
2021/04/18 08:18:14;;;;;;;12.43;7.30;;;12.40;75.80;;;;;;5059220;28;20051;-79
2021/04/18 08:20:42;;;;;;;11.85;6.55;;;12.50;71.70;;;;;;5062819;28;20488;-79
2021/04/18 08:23:14;;;;;;;8.35;5.25;;;12.60;73.40;;;;;;5053320;28;20039;-80
2021/04/18 08:26:05;;;;;;;9.60;5.72;;;12.70;71.70;;;;;;5067162;28;20056;-79
2021/04/18 08:28:54;;;;;;;9.05;5.85;;;12.70;70.50;;;;;;5052928;28;20048;-79
2021/04/18 08:31:29;;;;;;;9.70;5.32;;;12.90;68.40;;;;;;5050199;28;20761;-79
2021/04/18 08:34:00;;;;;;;10.82;5.70;;;13.00;69.60;;;;;;5059214;28;20037;-78
2021/04/18 08:36:34;;;;;;;9.20;5.47;;;13.10;69.60;;;;;;5046981;28;20780;-77
2021/04/18 08:39:00;;;;;;;8.75;5.00;;;13.30;68.00;;;;;;5039076;28;20056;-79
2021/04/18 08:41:49;;;;;;;7.47;4.85;;;13.20;66.60;;;;;;5046587;28;20049;-79
2021/04/18 08:44:37;;;;;;;9.23;4.93;;;13.30;63.10;;;;;;5064245;28;20068;-79
2021/04/18 08:47:08;;;;;;;7.25;5.40;;;13.40;65.10;;;;;;5055498;28;20067;-80
2021/04/18 08:49:48;;;;;;;7.63;5.35;;;13.40;66.00;;;;;;5060851;28;20049;-77
2021/04/18 08:52:28;;;;;;;10.30;5.57;;;13.40;65.30;;;;;;5052868;28;20052;-77
2021/04/18 08:55:01;;;;;;;8.32;5.45;;;13.20;65.80;;;;;;5051326;28;20036;-77
2021/04/18 08:57:32;;;;;;;9.90;5.03;;;13.10;66.00;;;;;;5056276;28;20048;-79
2021/04/18 09:00:00;;;;;;;11.48;5.70;;;13.10;66.60;;;;;;5056522;28;20132;-79
2021/04/18 09:02:28;;;;;;;9.15;5.45;;;13.00;66.90;;;;;;5064702;28;20053;-79
2021/04/18 09:05:00;;;;;;;10.90;5.30;;;13.00;66.70;;;;;;5059383;28;20033;-79
2021/04/18 09:07:28;;;;;;;10.98;5.35;;;13.00;66.40;;;;;;5062705;28;20086;-79
2021/04/18 09:10:08;;;;;;;13.20;5.47;;;13.10;65.80;;;;;;5056604;28;20106;-79
2021/04/18 09:12:35;;;;;;;10.00;5.13;;;13.20;62.30;;;;;;5061361;28;20430;-79
2021/04/18 09:15:03;;;;;;;9.70;5.10;;;13.10;65.10;;;;;;5053343;28;20167;-78
2021/04/18 09:17:31;;;;;;;9.55;5.45;;;13.20;65.40;;;;;;5059237;28;20045;-79
2021/04/18 09:20:05;;;;;;;8.63;5.28;;;13.20;65.20;;;;;;5074173;28;20041;-79
2021/04/18 09:22:40;;;;;;;9.48;5.13;;;13.30;66.10;;;;;;5052783;28;20477;-78
2021/04/18 09:25:09;;;;;;;8.93;5.38;;;13.40;62.10;;;;;;5060108;28;20060;-78
2021/04/18 09:27:43;;;;;;;8.23;5.03;;;13.30;63.60;;;;;;5057316;28;20395;-78
2021/04/18 09:30:26;;;;;;;8.63;5.70;;;13.30;64.00;;;;;;5058819;28;20408;-78
2021/04/18 09:32:56;;;;;;;7.38;5.18;;;13.30;63.10;;;;;;5055183;28;20566;-78
2021/04/18 09:35:24;;;;;;;8.13;5.13;;;13.30;64.80;;;;;;5058112;28;20039;-79
2021/04/18 09:38:02;;;;;;;7.40;4.85;;;13.30;65.00;;;;;;5054167;28;20672;-79
2021/04/18 09:40:30;;;;;;;7.63;4.88;;;13.40;64.30;;;;;;5057180;28;20398;-79
2021/04/18 09:42:57;;;;;;;9.00;5.32;;;13.40;64.20;;;;;;5057743;28;20048;-78
2021/04/18 09:45:25;;;;;;;7.60;5.05;;;13.50;63.60;;;;;;5054745;28;20039;-79
2021/04/18 09:48:10;;;;;;;7.55;4.88;;;13.50;64.00;;;;;;5057733;28;20041;-79
2021/04/18 09:50:36;;;;;;;10.27;5.53;;;13.60;63.00;;;;;;5057466;28;20489;-79
2021/04/18 09:53:14;;;;;;;9.32;5.43;;;13.60;63.40;;;;;;5062142;28;20048;-79
2021/04/18 09:55:58;;;;;;;7.45;5.57;;;13.70;63.10;;;;;;5053858;28;20040;-79
2021/04/18 09:58:29;;;;;;;9.13;5.50;;;13.60;63.50;;;;;;5052779;28;20052;-79
2021/04/18 10:00:56;;;;;;;7.90;4.25;;;13.60;63.60;;;;;;5052607;28;20037;-78
2021/04/18 10:03:39;;;;;;;7.72;5.00;;;13.50;63.00;;;;;;5065284;28;20053;-78
2021/04/18 10:06:06;;;;;;;9.65;5.38;;;13.40;62.00;;;;;;5056450;28;20052;-78
2021/04/18 10:08:37;;;;;;;9.27;5.30;;;13.50;63.40;;;;;;5060577;28;20059;-78
2021/04/18 10:11:07;;;;;;;8.10;5.63;;;13.50;63.90;;;;;;5051595;28;20090;-79
2021/04/18 10:13:45;;;;;;;9.43;5.80;;;13.60;63.50;;;;;;5059725;28;20491;-79
2021/04/18 10:16:13;;;;;;;7.70;5.40;;;13.60;63.30;;;;;;5053482;28;20080;-78
2021/04/18 10:18:41;;;;;;;9.57;5.20;;;13.70;63.70;;;;;;5052566;28;20041;-78
2021/04/18 10:21:21;;;;;;;10.90;5.05;;;13.70;63.60;;;;;;5057722;28;20469;-78
2021/04/18 10:23:48;;;;;;;7.82;5.28;;;14.00;62.00;;;;;;5053769;28;20045;-78
2021/04/18 10:26:19;;;;;;;8.52;4.90;;;14.10;62.80;;;;;;5056298;28;20102;-78
2021/04/18 10:28:50;;;;;;;7.50;5.20;;;14.30;61.10;;;;;;5053759;28;20052;-78
2021/04/18 10:31:18;;;;;;;7.63;4.80;;;14.50;60.50;;;;;;5059511;28;20071;-78
2021/04/18 10:33:44;;;;;;;6.93;5.03;;;14.70;59.60;;;;;;5058085;28;20415;-77
2021/04/18 10:36:11;;;;;;;7.13;5.45;;;14.90;59.20;;;;;;5052611;28;20044;-77
2021/04/18 10:38:38;;;;;;;7.18;4.68;;;15.00;58.20;;;;;;5040390;28;20642;-77
2021/04/18 10:41:04;;;;;;;6.88;5.10;;;15.10;58.10;;;;;;5053349;28;20477;-77
2021/04/18 10:43:30;;;;;;;7.82;5.65;;;15.10;58.20;;;;;;5059106;28;20382;-77
2021/04/18 10:45:56;;;;;;;7.75;4.57;;;15.20;57.60;;;;;;5050663;28;20102;-77
2021/04/18 10:48:22;;;;;;;13.10;7.45;;;15.40;57.40;;;;;;5056914;28;20534;-80
2021/04/18 10:50:48;;;;;;;5.50;4.45;;;15.40;56.10;;;;;;5052348;28;20102;-79
2021/04/18 10:53:14;;;;;;;6.07;4.22;;;15.50;55.60;;;;;;5053562;28;20044;-79
2021/04/18 10:55:40;;;;;;;10.00;4.32;;;15.50;55.80;;;;;;5046513;28;20041;-79
2021/04/18 10:58:06;;;;;;;6.25;4.05;;;15.70;55.90;;;;;;5066400;28;20715;-79
2021/04/18 11:00:32;;;;;;;5.57;3.85;;;15.80;54.60;;;;;;5058144;28;20060;-79
2021/04/18 11:02:58;;;;;;;7.25;4.15;;;15.80;54.00;;;;;;5049693;28;20052;-79
2021/04/18 11:05:24;;;;;;;5.07;3.75;;;15.90;53.90;;;;;;5052431;28;20120;-79
2021/04/18 11:07:50;;;;;;;7.43;3.95;;;15.80;52.90;;;;;;5039394;28;20054;-79
2021/04/18 11:10:20;;;;;;;6.80;3.70;;;15.80;52.90;;;;;;5061967;28;20090;-79
2021/04/18 11:12:47;;;;;;;6.55;3.30;;;15.90;53.10;;;;;;5054940;28;20454;-79
2021/04/18 11:15:13;;;;;;;9.13;3.83;;;16.00;52.30;;;;;;5057010;28;20103;-78
2021/04/18 11:17:39;;;;;;;5.75;4.03;;;16.10;51.80;;;;;;5059883;28;20048;-80
2021/04/18 11:20:09;;;;;;;5.28;2.85;;;16.30;52.20;;;;;;5061417;28;20139;-78
2021/04/18 11:22:39;;;;;;;4.30;3.17;;;16.60;51.80;;;;;;5054706;28;20417;-84
2021/04/18 11:25:10;;;;;;;5.80;3.58;;;16.70;49.90;;;;;;5035300;28;20060;-79
2021/04/18 11:27:37;;;;;;;4.85;3.28;;;16.70;49.50;;;;;;5047775;28;20076;-79
2021/04/18 11:30:05;;;;;;;4.13;3.03;;;16.80;49.50;;;;;;5063537;28;20086;-79
2021/04/18 11:32:32;;;;;;;4.70;2.83;;;16.90;49.20;;;;;;5062864;28;20028;-80
2021/04/18 11:34:59;;;;;;;4.10;2.38;;;16.80;47.70;;;;;;5064273;28;20048;-80
2021/04/18 11:37:25;;;;;;;5.88;2.92;;;16.60;46.60;;;;;;5066822;28;20070;-79
2021/04/18 11:39:51;;;;;;;6.93;3.50;;;16.50;46.70;;;;;;5062557;28;20665;-80
2021/04/18 11:42:18;;;;;;;4.22;2.95;;;16.40;48.60;;;;;;5054973;28;20075;-80
2021/04/18 11:44:46;;;;;;;5.82;2.30;;;16.40;49.10;;;;;;5063895;28;20037;-79
2021/04/18 11:47:12;;;;;;;4.85;2.53;;;16.40;48.20;;;;;;5062821;28;20096;-79
2021/04/18 11:49:38;;;;;;;5.22;2.60;;;16.50;47.70;;;;;;5060283;28;20595;-79
2021/04/18 11:52:06;;;;;;;4.90;2.45;;;16.40;47.00;;;;;;5055889;28;20131;-78
2021/04/18 11:54:32;;;;;;;6.32;2.60;;;16.40;46.90;;;;;;5056831;28;20168;-77
2021/04/18 11:56:58;;;;;;;4.65;2.50;;;16.30;46.80;;;;;;5065049;28;20063;-79
2021/04/18 11:59:45;;;;;;;5.35;2.15;;;16.30;47.70;;;;;;5060364;28;20052;-79
2021/04/18 12:02:11;;;;;;;9.45;2.63;;;16.30;48.20;;;;;;5054982;28;20037;-78
2021/04/18 12:04:36;;;;;;;5.10;2.75;;;16.40;47.50;;;;;;5055575;28;20075;-78
2021/04/18 12:07:04;;;;;;;5.10;2.60;;;16.40;48.10;;;;;;5061493;28;20047;-78
2021/04/18 12:09:30;;;;;;;4.70;2.25;;;16.40;48.30;;;;;;5057054;28;20544;-79
2021/04/18 12:11:55;;;;;;;5.35;2.40;;;16.40;47.40;;;;;;5058010;28;20048;-78
2021/04/18 12:14:21;;;;;;;4.95;2.58;;;16.30;48.00;;;;;;5051312;28;20362;-79
2021/04/18 12:16:47;;;;;;;6.25;2.60;;;16.40;47.70;;;;;;5066284;28;20056;-78
2021/04/18 12:19:13;;;;;;;6.50;3.03;;;16.40;47.50;;;;;;5052566;28;20041;-77
2021/04/18 12:21:38;;;;;;;6.95;2.92;;;16.50;48.00;;;;;;5058346;28;20096;-77
2021/04/18 12:24:05;;;;;;;7.07;3.50;;;16.60;48.00;;;;;;5055107;28;20116;-77
2021/04/18 12:26:31;;;;;;;5.20;2.60;;;16.80;47.50;;;;;;5059406;28;20045;-77
2021/04/18 12:28:57;;;;;;;5.10;3.13;;;16.80;47.30;;;;;;5056042;28;20043;-77
2021/04/18 12:31:23;;;;;;;5.20;2.95;;;16.70;46.90;;;;;;5048621;28;20037;-76
2021/04/18 12:33:49;;;;;;;7.03;3.13;;;16.60;47.40;;;;;;5054290;28;20033;-77
2021/04/18 12:36:15;;;;;;;4.82;3.40;;;16.60;47.50;;;;;;5057430;28;20453;-77
2021/04/18 12:38:40;;;;;;;6.20;2.75;;;16.50;48.40;;;;;;5052111;28;20146;-76
2021/04/18 12:41:07;;;;;;;7.28;2.42;;;16.40;47.50;;;;;;5052351;28;20044;-77
2021/04/18 12:43:33;;;;;;;8.32;3.17;;;16.40;48.60;;;;;;5056832;28;20461;-78
2021/04/18 12:46:00;;;;;;;5.43;3.22;;;16.60;48.30;;;;;;5052100;28;20515;-78